Time;durP1;ratioP1;P1;durP2;ratioP2;P2;SDS_P1;SDS_P2;PMS_P1;PMS_P2;Temp;Humidity;BMP_temperature;BMP_pressure;BME280_temperature;BME280_humidity;BME280_pressure;Samples;Min_cycle;Max_cycle;Signal;HPM_P1;HPM_P2
2022/06/17 00:03:00;;;;;;;;;;;;;;;23.80;38.95;96224.03;10475022;28;2059;-59
2022/06/17 00:08:01;;;;;;;;;;;;;;;23.77;38.56;96216.69;10475030;28;2065;-60
2022/06/17 00:13:01;;;;;;;;;;;;;;;23.77;38.84;96208.75;10455500;28;1977;-60
2022/06/17 00:18:02;;;;;;;;;;;;;;;23.78;39.11;96210.31;10465396;28;1943;-60
2022/06/17 00:23:02;;;;;;;;;;;;;;;23.77;38.89;96186.78;10484566;28;1930;-62
2022/06/17 00:28:02;;;;;;;;;;;;;;;23.77;38.79;96192.88;10468311;28;1868;-62
2022/06/17 00:33:03;;;;;;;;;;;;;;;23.75;38.86;96204.78;10476510;28;2132;-63
2022/06/17 00:38:04;;;;;;;;;;;;;;;23.72;38.73;96216.72;10482231;28;1952;-61
2022/06/17 00:43:11;;;;;;;;;;;;;;;23.70;38.44;96213.56;10467326;28;2005;-62
2022/06/17 00:48:12;;;;;;;;;;;;;;;23.69;38.45;96206.72;10454165;28;1902;-59
2022/06/17 00:53:15;;;;;;;;;;;;;;;23.69;38.67;96212.00;10478329;28;1967;-61
2022/06/17 00:58:19;;;;;;;;;;;;;;;23.69;38.68;96211.22;10463970;28;1971;-60
2022/06/17 01:03:27;;;;;;;;;;;;;;;23.64;38.90;96214.72;10465765;28;1994;-62
2022/06/17 01:13:56;;;;;;;;;;;;;;;23.62;38.88;96224.78;10464046;28;2044;-61
2022/06/17 01:18:57;;;;;;;;;;;;;;;23.60;38.71;96228.78;10492182;28;1961;-61
2022/06/17 01:23:59;;;;;;;;;;;;;;;23.57;39.07;96239.94;10462793;28;2010;-60
2022/06/17 01:29:24;;;;;;;;;;;;;;;23.56;38.96;96260.31;10496162;28;2203;-60
2022/06/17 01:34:31;;;;;;;;;;;;;;;23.54;39.08;96261.66;10496463;28;1889;-61
2022/06/17 01:39:31;;;;;;;;;;;;;;;23.52;38.81;96254.00;10484154;28;2019;-59
2022/06/17 01:44:33;;;;;;;;;;;;;;;23.52;38.87;96253.22;10481216;28;1909;-59
2022/06/17 01:49:35;;;;;;;;;;;;;;;23.52;38.65;96261.94;10467052;28;2140;-61
2022/06/17 01:54:52;;;;;;;;;;;;;;;23.48;38.64;96255.63;10489894;28;2102;-60
2022/06/17 01:59:57;;;;;;;;;;;;;;;23.47;38.72;96253.28;10442812;28;1916;-59
2022/06/17 02:04:58;;;;;;;;;;;;;;;23.45;38.65;96242.97;10443902;28;1986;-60
2022/06/17 02:09:58;;;;;;;;;;;;;;;23.43;38.47;96239.81;10469359;28;1912;-59
2022/06/17 02:14:58;;;;;;;;;;;;;;;23.41;38.46;96236.66;10495249;28;1933;-60
2022/06/17 02:19:59;;;;;;;;;;;;;;;23.39;38.54;96228.19;10476416;28;1946;-61
2022/06/17 02:25:00;;;;;;;;;;;;;;;23.38;38.28;96216.06;10458348;28;1955;-61
2022/06/17 02:30:04;;;;;;;;;;;;;;;23.37;38.32;96217.91;10462442;28;1829;-61
2022/06/17 02:35:09;;;;;;;;;;;;;;;23.36;38.62;96213.69;10461268;28;1936;-59
2022/06/17 02:40:21;;;;;;;;;;;;;;;23.36;38.69;96212.91;10445739;28;2107;-60
2022/06/17 02:45:22;;;;;;;;;;;;;;;23.34;38.69;96209.75;10448539;28;2662;-60
2022/06/17 02:50:23;;;;;;;;;;;;;;;23.33;38.57;96208.16;10489667;28;2134;-61
2022/06/17 02:55:29;;;;;;;;;;;;;;;23.30;38.56;96204.19;10491166;28;1919;-60
2022/06/17 03:00:30;;;;;;;;;;;;;;;23.30;38.60;96204.19;10456547;28;1921;-59
2022/06/17 03:05:31;;;;;;;;;;;;;;;23.30;38.82;96187.53;10481322;28;1942;-59
2022/06/17 03:10:33;;;;;;;;;;;;;;;23.33;38.89;96187.00;10462231;28;1912;-60
2022/06/17 03:15:35;;;;;;;;;;;;;;;23.32;38.71;96196.00;10443543;28;2028;-58
2022/06/17 03:20:36;;;;;;;;;;;;;;;23.30;38.64;96219.28;10444901;28;1856;-59
2022/06/17 03:25:38;;;;;;;;;;;;;;;23.27;38.62;96219.81;10472082;28;1975;-60
2022/06/17 03:30:39;;;;;;;;;;;;;;;23.24;38.41;96215.91;10487100;28;1951;-58
2022/06/17 03:35:39;;;;;;;;;;;;;;;23.23;38.68;96232.03;10490870;28;1911;-59
2022/06/17 03:40:41;;;;;;;;;;;;;;;23.20;38.76;96240.53;10458839;28;2026;-60
2022/06/17 03:45:43;;;;;;;;;;;;;;;23.20;38.57;96240.53;10462011;28;1965;-60
2022/06/17 03:50:47;;;;;;;;;;;;;;;23.18;38.78;96258.53;10471022;28;1853;-60
2022/06/17 03:55:47;;;;;;;;;;;;;;;23.18;38.85;96253.25;10460299;28;1876;-59
2022/06/17 04:00:49;;;;;;;;;;;;;;;23.19;38.90;96266.19;10442793;28;1993;-61
2022/06/17 04:05:51;;;;;;;;;;;;;;;23.18;39.04;96266.47;10444477;28;1977;-60
2022/06/17 04:10:51;;;;;;;;;;;;;;;23.19;38.70;96252.16;10455383;28;2034;-57
2022/06/17 04:15:53;;;;;;;;;;;;;;;23.19;39.07;96244.22;10479336;28;1995;-57
2022/06/17 04:20:54;;;;;;;;;;;;;;;23.23;38.88;96239.97;10455965;28;2108;-60
2022/06/17 04:25:56;;;;;;;;;;;;;;;23.24;38.80;96246.84;10489612;28;2074;-58
2022/06/17 04:30:58;;;;;;;;;;;;;;;23.27;39.14;96256.84;10441645;28;2204;-59
2022/06/17 04:36:00;;;;;;;;;;;;;;;23.27;38.81;96262.13;10439461;28;1954;-60
2022/06/17 04:41:00;;;;;;;;;;;;;;;23.30;39.08;96261.59;10473924;28;2030;-59
2022/06/17 04:46:03;;;;;;;;;;;;;;;23.28;38.74;96269.03;10490348;28;1897;-60
2022/06/17 04:51:04;;;;;;;;;;;;;;;23.28;38.72;96287.53;10454668;28;1944;-59
2022/06/17 04:56:10;;;;;;;;;;;;;;;23.29;38.81;96294.41;10471182;28;1883;-61
2022/06/17 05:01:14;;;;;;;;;;;;;;;23.30;38.84;96310.00;10489588;28;1909;-61
2022/06/17 05:06:16;;;;;;;;;;;;;;;23.30;38.96;96314.50;10454688;28;1975;-57
2022/06/17 05:11:32;;;;;;;;;;;;;;;23.32;38.74;96322.97;10464272;28;2182;-61
2022/06/17 05:16:32;;;;;;;;;;;;;;;23.27;38.44;96328.28;10482935;28;1912;-58
2022/06/17 05:21:33;;;;;;;;;;;;;;;23.26;38.02;96340.72;10479540;28;2035;-61
2022/06/17 05:26:33;;;;;;;;;;;;;;;23.18;37.95;96335.25;10472433;28;2030;-58
2022/06/17 05:31:33;;;;;;;;;;;;;;;23.19;37.73;96350.03;10477141;28;1925;-60
2022/06/17 05:36:34;;;;;;;;;;;;;;;23.24;38.00;96347.34;10462054;28;1956;-59
2022/06/17 05:41:34;;;;;;;;;;;;;;;23.27;38.19;96342.28;10460042;28;1959;-59
2022/06/17 05:46:35;;;;;;;;;;;;;;;23.29;38.12;96352.59;10481459;28;1956;-60
2022/06/17 05:51:35;;;;;;;;;;;;;;;23.28;37.81;96349.19;10462047;28;1967;-62
2022/06/17 05:56:35;;;;;;;;;;;;;;;23.29;38.13;96353.38;10462673;28;2039;-59
2022/06/17 06:01:36;;;;;;;;;;;;;;;23.31;38.04;96353.91;10461336;28;1979;-60
2022/06/17 06:06:36;;;;;;;;;;;;;;;23.33;38.32;96366.88;10460395;28;1932;-62
2022/06/17 06:11:36;;;;;;;;;;;;;;;23.42;38.16;96378.47;10463413;28;1916;-61
2022/06/17 06:16:38;;;;;;;;;;;;;;;23.41;37.82;96382.94;10458125;28;2034;-61
2022/06/17 06:21:38;;;;;;;;;;;;;;;23.44;38.28;96381.63;10464892;28;2013;-58
2022/06/17 06:26:40;;;;;;;;;;;;;;;23.54;38.60;96381.53;10461023;28;1957;-56
2022/06/17 06:31:40;;;;;;;;;;;;;;;23.64;38.94;96392.03;10474963;28;1883;-57
2022/06/17 06:36:40;;;;;;;;;;;;;;;23.65;39.13;96400.78;10476299;28;1896;-59
2022/06/17 06:41:41;;;;;;;;;;;;;;;23.71;39.66;96389.06;10476307;28;1983;-58
2022/06/17 06:46:42;;;;;;;;;;;;;;;23.74;39.38;96394.59;10476516;28;1955;-58
2022/06/17 06:51:42;;;;;;;;;;;;;;;23.76;40.06;96405.69;10477378;28;1976;-58
2022/06/17 06:56:42;;;;;;;;;;;;;;;23.78;39.92;96400.91;10479358;28;2094;-58
2022/06/17 07:01:45;;;;;;;;;;;;;;;23.81;39.87;96410.97;10491753;28;2056;-59
2022/06/17 07:06:45;;;;;;;;;;;;;;;23.81;40.01;96413.59;10480144;28;1856;-58
2022/06/17 07:11:46;;;;;;;;;;;;;;;23.82;40.34;96415.16;10458692;28;2004;-58
2022/06/17 07:16:46;;;;;;;;;;;;;;;23.84;40.33;96417.56;10492366;28;1972;-59
2022/06/17 07:21:48;;;;;;;;;;;;;;;23.86;40.41;96421.53;10474862;28;1909;-57
2022/06/17 07:26:49;;;;;;;;;;;;;;;23.86;40.41;96410.94;10471769;28;1964;-59
2022/06/17 07:31:49;;;;;;;;;;;;;;;23.87;40.44;96412.50;10462745;28;1935;-57
2022/06/17 07:42:09;;;;;;;;;;;;;;;23.89;40.72;96418.28;10452819;28;1966;-60
2022/06/17 07:47:12;;;;;;;;;;;;;;;23.90;40.62;96419.88;10463324;28;1971;-58
2022/06/17 07:52:13;;;;;;;;;;;;;;;23.90;41.17;96417.25;10475161;28;1980;-60
2022/06/17 07:57:13;;;;;;;;;;;;;;;23.92;41.04;96419.59;10477989;28;1979;-59
2022/06/17 08:02:13;;;;;;;;;;;;;;;23.93;41.30;96415.88;10456100;28;2062;-56
2022/06/17 08:07:14;;;;;;;;;;;;;;;23.92;41.14;96419.59;10474620;28;2121;-60
2022/06/17 08:12:14;;;;;;;;;;;;;;;23.93;41.45;96424.63;10478203;28;2022;-60
2022/06/17 08:17:15;;;;;;;;;;;;;;;23.93;41.52;96427.25;10489091;28;2012;-61
2022/06/17 08:22:17;;;;;;;;;;;;;;;23.95;41.65;96433.06;10457552;28;1981;-59
2022/06/17 08:27:17;;;;;;;;;;;;;;;23.96;41.41;96434.66;10459326;28;1968;-59
2022/06/17 08:37:36;;;;;;;;;;;;;;;23.97;41.37;96430.94;10494272;28;1975;-60
2022/06/17 08:42:58;;;;;;;;;;;;;;;23.97;41.49;96436.22;10477576;28;1998;-57
2022/06/17 08:47:58;;;;;;;;;;;;;;;23.99;41.70;96449.19;10463226;28;1963;-59
2022/06/17 08:53:02;;;;;;;;;;;;;;;24.00;41.88;96453.44;10464104;28;1848;-59
2022/06/17 08:58:12;;;;;;;;;;;;;;;24.01;42.01;96465.59;10484397;28;1897;-58
2022/06/17 09:03:24;;;;;;;;;;;;;;;24.00;41.58;96459.53;10479828;28;1947;-59
2022/06/17 09:08:50;;;;;;;;;;;;;;;24.00;42.13;96459.53;10448312;28;1939;-60
2022/06/17 09:13:54;;;;;;;;;;;;;;;24.02;41.79;96454.72;10466006;28;2171;-58
2022/06/17 09:18:56;;;;;;;;;;;;;;;24.02;41.88;96465.34;10449616;28;1828;-60
2022/06/17 09:23:59;;;;;;;;;;;;;;;24.03;42.01;96458.16;10449532;28;1995;-58
2022/06/17 09:29:22;;;;;;;;;;;;;;;24.02;42.12;96460.03;10449629;28;1862;-61
2022/06/17 09:34:44;;;;;;;;;;;;;;;24.04;41.94;96465.88;10471034;28;1877;-59
2022/06/17 09:39:48;;;;;;;;;;;;;;;24.05;42.06;96467.44;10463814;28;1868;-60
2022/06/17 09:44:51;;;;;;;;;;;;;;;24.07;41.99;96459.22;10475132;28;1910;-58
2022/06/17 09:49:53;;;;;;;;;;;;;;;24.06;41.92;96463.72;10481283;28;2261;-60
2022/06/17 09:55:06;;;;;;;;;;;;;;;24.08;42.16;96455.50;10476996;28;1844;-60
2022/06/17 10:00:11;;;;;;;;;;;;;;;24.08;42.05;96464.25;10447501;28;1842;-59
2022/06/17 10:05:13;;;;;;;;;;;;;;;24.08;42.19;96469.53;10479505;28;1906;-60
2022/06/17 10:10:21;;;;;;;;;;;;;;;24.09;42.19;96467.69;10476106;28;1960;-59
2022/06/17 10:15:27;;;;;;;;;;;;;;;24.10;42.40;96472.69;10461958;28;1834;-57
2022/06/17 10:20:43;;;;;;;;;;;;;;;24.09;42.59;96471.09;10457466;28;1866;-59
2022/06/17 10:25:49;;;;;;;;;;;;;;;24.12;42.48;96469.75;10478329;28;1961;-56
2022/06/17 10:31:07;;;;;;;;;;;;;;;24.12;42.69;96464.47;10482386;28;1811;-57
2022/06/17 10:36:07;;;;;;;;;;;;;;;24.12;42.44;96470.56;10444791;28;1843;-58
2022/06/17 10:41:10;;;;;;;;;;;;;;;24.12;42.67;96459.97;10474438;28;1860;-59
2022/06/17 10:46:13;;;;;;;;;;;;;;;24.14;42.56;96451.72;10479999;28;1947;-60
2022/06/17 10:51:14;;;;;;;;;;;;;;;24.14;42.58;96447.22;10491364;28;2144;-58
2022/06/17 10:56:18;;;;;;;;;;;;;;;24.15;42.72;96434.78;10444364;28;1854;-58
2022/06/17 11:01:19;;;;;;;;;;;;;;;24.16;42.54;96446.94;10442940;28;1864;-60
2022/06/17 11:06:19;;;;;;;;;;;;;;;24.15;42.40;96448.81;10460586;28;1969;-58
2022/06/17 11:16:57;;;;;;;;;;;;;;;24.18;42.68;96448.25;10488419;28;1801;-59
2022/06/17 11:21:59;;;;;;;;;;;;;;;24.18;42.53;96442.97;10460911;28;1914;-58
2022/06/17 11:27:19;;;;;;;;;;;;;;;24.19;42.59;96454.34;10476229;28;1856;-58
2022/06/17 11:32:19;;;;;;;;;;;;;;;24.19;42.48;96444.53;10456573;28;2099;-58
2022/06/17 11:37:20;;;;;;;;;;;;;;;24.19;42.52;96433.91;10473322;28;1829;-57
2022/06/17 11:42:24;;;;;;;;;;;;;;;24.21;42.50;96431.78;10487713;28;2033;-56
2022/06/17 11:47:25;;;;;;;;;;;;;;;24.21;42.54;96421.19;10458150;28;1855;-58
2022/06/17 11:52:30;;;;;;;;;;;;;;;24.23;42.62;96418.28;10477365;28;1881;-58
2022/06/17 11:57:32;;;;;;;;;;;;;;;24.24;42.84;96419.84;10477463;28;1756;-59
2022/06/17 12:02:32;;;;;;;;;;;;;;;24.23;42.30;96419.03;10472788;28;1984;-61
2022/06/17 12:07:44;;;;;;;;;;;;;;;24.23;42.69;96416.41;10479797;28;1904;-57
2022/06/17 12:12:45;;;;;;;;;;;;;;;24.24;42.51;96418.00;10455668;28;1734;-61
2022/06/17 12:17:45;;;;;;;;;;;;;;;24.24;42.51;96410.03;10460238;28;1796;-59
2022/06/17 12:22:56;;;;;;;;;;;;;;;24.28;42.78;96412.16;10456737;28;1935;-59
2022/06/17 12:28:01;;;;;;;;;;;;;;;24.28;42.62;96412.16;10491945;28;1833;-58
2022/06/17 12:33:03;;;;;;;;;;;;;;;24.28;42.60;96410.25;10455417;28;1801;-58
2022/06/17 12:38:10;;;;;;;;;;;;;;;24.30;42.47;96412.66;10474731;28;1856;-60
2022/06/17 12:43:10;;;;;;;;;;;;;;;24.29;42.76;96408.41;10473011;28;1967;-60
2022/06/17 12:48:16;;;;;;;;;;;;;;;24.29;42.56;96409.22;10473164;28;1764;-58
2022/06/17 12:53:37;;;;;;;;;;;;;;;24.31;42.67;96403.63;10472672;28;1823;-58
2022/06/17 12:58:49;;;;;;;;;;;;;;;24.31;42.61;96401.75;10454111;28;2151;-60
2022/06/17 13:04:08;;;;;;;;;;;;;;;24.33;42.89;96406.78;10483967;28;1992;-59
2022/06/17 13:09:21;;;;;;;;;;;;;;;24.33;42.65;96396.19;10478447;28;1868;-60
2022/06/17 13:14:21;;;;;;;;;;;;;;;24.33;42.69;96396.19;10474134;28;1774;-59
2022/06/17 13:19:36;;;;;;;;;;;;;;;24.33;42.54;96386.38;10475643;28;1868;-60
2022/06/17 13:24:51;;;;;;;;;;;;;;;24.34;42.88;96390.59;10494888;28;1914;-61
2022/06/17 13:30:00;;;;;;;;;;;;;;;24.34;42.92;96387.16;10484008;28;1821;-60
2022/06/17 13:35:04;;;;;;;;;;;;;;;24.36;42.74;96390.31;10491806;28;1706;-57
2022/06/17 13:40:11;;;;;;;;;;;;;;;24.35;42.89;96386.09;10459815;28;1917;-57
2022/06/17 13:45:14;;;;;;;;;;;;;;;24.36;42.74;96383.16;10463879;28;1910;-60
2022/06/17 13:50:18;;;;;;;;;;;;;;;24.37;42.88;96386.59;10444637;28;1863;-60
2022/06/17 13:55:18;;;;;;;;;;;;;;;24.37;42.84;96391.91;10475105;28;1797;-59
2022/06/17 14:00:24;;;;;;;;;;;;;;;24.38;42.93;96393.47;10462311;28;1786;-58
2022/06/17 14:05:31;;;;;;;;;;;;;;;24.39;43.06;96384.44;10489491;28;1913;-60
2022/06/17 14:10:43;;;;;;;;;;;;;;;24.38;43.00;96388.94;10480103;28;1864;-58
2022/06/17 14:15:53;;;;;;;;;;;;;;;24.39;42.90;96382.59;10476195;28;2135;-60
2022/06/17 14:21:01;;;;;;;;;;;;;;;24.39;42.79;96379.16;10473048;28;2122;-58
2022/06/17 14:26:03;;;;;;;;;;;;;;;24.40;42.94;96376.22;10488103;28;1914;-57
2022/06/17 14:31:29;;;;;;;;;;;;;;;24.41;43.00;96374.34;10476394;28;1944;-60
2022/06/17 14:36:40;;;;;;;;;;;;;;;24.41;43.18;96374.34;10477896;28;1710;-59
2022/06/17 14:47:28;;;;;;;;;;;;;;;24.41;43.10;96377.00;10477672;28;1838;-57
2022/06/17 14:52:30;;;;;;;;;;;;;;;24.41;42.75;96366.41;10479711;28;1711;-59
2022/06/17 14:57:32;;;;;;;;;;;;;;;24.42;43.10;96368.75;10490798;28;1875;-58
2022/06/17 15:02:35;;;;;;;;;;;;;;;24.42;43.17;96373.31;10477214;28;1917;-60
2022/06/17 15:07:38;;;;;;;;;;;;;;;24.42;43.11;96357.41;10475848;28;1900;-60
2022/06/17 15:12:44;;;;;;;;;;;;;;;24.42;42.93;96350.22;10452275;28;2059;-60
2022/06/17 15:17:47;;;;;;;;;;;;;;;24.42;42.94;96347.56;10460448;28;1791;-59
2022/06/17 15:22:58;;;;;;;;;;;;;;;24.43;43.09;96343.06;10455962;28;1957;-57
2022/06/17 15:28:01;;;;;;;;;;;;;;;24.43;42.97;96340.41;10459558;28;1805;-58
2022/06/17 15:33:07;;;;;;;;;;;;;;;24.43;42.98;96345.72;10465990;28;1879;-58
2022/06/17 15:38:26;;;;;;;;;;;;;;;24.43;42.95;96343.06;10442477;28;1845;-60
2022/06/17 15:43:27;;;;;;;;;;;;;;;24.43;42.89;96349.16;10471477;28;1953;-60
2022/06/17 15:48:28;;;;;;;;;;;;;;;24.44;43.01;96348.06;10478760;28;1742;-58
2022/06/17 15:53:32;;;;;;;;;;;;;;;24.43;42.76;96349.16;10454960;28;2044;-59
2022/06/17 15:58:36;;;;;;;;;;;;;;;24.43;42.84;96349.16;10458046;28;1855;-56
2022/06/17 16:03:40;;;;;;;;;;;;;;;24.44;42.99;96344.66;10458019;28;1914;-60
2022/06/17 16:08:42;;;;;;;;;;;;;;;24.44;43.03;96356.03;10462240;28;1897;-59
2022/06/17 16:13:46;;;;;;;;;;;;;;;24.44;43.00;96356.03;10472388;28;1886;-60
2022/06/17 16:18:47;;;;;;;;;;;;;;;24.44;43.14;96347.31;10462890;28;1803;-61
2022/06/17 16:23:48;;;;;;;;;;;;;;;24.45;42.81;96343.56;10487214;28;1950;-59
2022/06/17 16:28:49;;;;;;;;;;;;;;;24.45;42.87;96343.56;10486019;28;1858;-61
2022/06/17 16:33:53;;;;;;;;;;;;;;;24.45;43.01;96338.25;10484814;28;2024;-59
2022/06/17 16:38:54;;;;;;;;;;;;;;;24.46;43.10;96334.56;10488473;28;1961;-60
2022/06/17 16:44:13;;;;;;;;;;;;;;;24.45;43.00;96340.91;10482973;28;1914;-59
2022/06/17 16:49:13;;;;;;;;;;;;;;;24.45;43.04;96346.22;10474772;28;1980;-59
2022/06/17 16:54:14;;;;;;;;;;;;;;;24.46;43.07;96337.22;10486060;28;1878;-57
2022/06/17 16:59:15;;;;;;;;;;;;;;;24.47;42.94;96338.78;10495603;28;1816;-57
2022/06/17 17:04:16;;;;;;;;;;;;;;;24.46;43.21;96350.47;10492114;28;2017;-59
2022/06/17 17:09:16;;;;;;;;;;;;;;;24.46;43.21;96347.81;10497796;28;1851;-56
2022/06/17 17:14:16;;;;;;;;;;;;;;;24.46;43.12;96348.56;10495462;28;1890;-58
2022/06/17 17:19:17;;;;;;;;;;;;;;;24.46;43.00;96359.19;10480537;28;1796;-58
2022/06/17 17:24:18;;;;;;;;;;;;;;;24.46;43.25;96364.47;10493697;28;1943;-59
2022/06/17 17:29:19;;;;;;;;;;;;;;;24.46;42.98;96366.34;10477992;28;1865;-58
2022/06/17 17:34:20;;;;;;;;;;;;;;;24.46;43.14;96364.47;10471552;28;1954;-57
2022/06/17 17:39:20;;;;;;;;;;;;;;;24.47;43.15;96359.97;10476326;28;1879;-58
2022/06/17 17:44:21;;;;;;;;;;;;;;;24.48;43.09;96356.25;10480587;28;1919;-60
2022/06/17 17:49:23;;;;;;;;;;;;;;;24.47;43.08;96366.06;10463951;28;1944;-60
2022/06/17 17:54:23;;;;;;;;;;;;;;;24.48;42.97;96374.81;10484447;28;1820;-59
2022/06/17 17:59:24;;;;;;;;;;;;;;;24.48;43.01;96382.75;10474227;28;1800;-60
2022/06/17 18:04:25;;;;;;;;;;;;;;;24.48;43.09;96377.47;10473264;28;1965;-58
2022/06/17 18:09:25;;;;;;;;;;;;;;;24.48;43.21;96362.38;10483619;28;1793;-57
2022/06/17 18:14:25;;;;;;;;;;;;;;;24.48;42.93;96367.66;10492958;28;1784;-57
2022/06/17 18:19:25;;;;;;;;;;;;;;;24.48;43.15;96374.81;10495380;28;1806;-59
2022/06/17 18:24:26;;;;;;;;;;;;;;;24.48;43.26;96370.31;10473463;28;1965;-57
2022/06/17 18:29:28;;;;;;;;;;;;;;;24.48;43.28;96369.50;10463540;28;1880;-60
2022/06/17 18:34:33;;;;;;;;;;;;;;;24.48;43.26;96366.88;10461404;28;1753;-60
2022/06/17 18:39:34;;;;;;;;;;;;;;;24.48;43.40;96364.22;10495743;28;1856;-58
2022/06/17 18:44:34;;;;;;;;;;;;;;;24.48;43.19;96367.66;10490545;28;1993;-60
2022/06/17 18:49:35;;;;;;;;;;;;;;;24.49;43.15;96368.44;10461651;28;1803;-59
2022/06/17 18:54:35;;;;;;;;;;;;;;;24.48;43.09;96362.38;10477576;28;1868;-58
2022/06/17 18:59:36;;;;;;;;;;;;;;;24.49;43.09;96368.44;10494222;28;1875;-60
2022/06/17 19:04:37;;;;;;;;;;;;;;;24.48;43.07;96372.97;10458655;28;1902;-59
2022/06/17 19:20:19;;;;;;;;;;;;;;;24.49;43.40;96373.72;10450887;28;1833;-59
2022/06/17 19:25:19;;;;;;;;;;;;;;;24.49;43.24;96373.72;10458935;28;1967;-59
2022/06/17 19:30:19;;;;;;;;;;;;;;;24.48;43.20;96390.72;10475947;28;1891;-60
2022/06/17 19:35:28;;;;;;;;;;;;;;;24.49;43.13;96395.72;10487913;28;1752;-59
2022/06/17 19:40:28;;;;;;;;;;;;;;;24.49;43.42;96387.78;10473944;28;1820;-61
2022/06/17 19:45:28;;;;;;;;;;;;;;;24.49;43.35;96402.88;10457924;28;1973;-58
2022/06/17 19:50:29;;;;;;;;;;;;;;;24.49;43.09;96400.22;10457052;28;2189;-58
2022/06/17 19:55:29;;;;;;;;;;;;;;;24.49;43.35;96402.88;10478266;28;1917;-56
2022/06/17 20:00:29;;;;;;;;;;;;;;;24.50;43.34;96401.81;10454908;28;1863;-58
2022/06/17 20:05:30;;;;;;;;;;;;;;;24.49;43.48;96411.63;10484048;28;1971;-58
2022/06/17 20:10:31;;;;;;;;;;;;;;;24.50;43.33;96409.78;10476552;28;1780;-58
2022/06/17 20:15:31;;;;;;;;;;;;;;;24.49;43.31;96408.97;10474732;28;1851;-59
2022/06/17 20:20:37;;;;;;;;;;;;;;;24.50;43.26;96412.44;10475035;28;1823;-56
2022/06/17 20:25:37;;;;;;;;;;;;;;;24.50;43.37;96417.72;10453162;28;1960;-59
2022/06/17 20:30:39;;;;;;;;;;;;;;;24.49;43.62;96411.63;10442427;28;1825;-60
2022/06/17 20:35:39;;;;;;;;;;;;;;;24.50;43.38;96420.38;10492404;28;1839;-59
2022/06/17 20:40:40;;;;;;;;;;;;;;;24.51;43.37;96416.63;10496935;28;1823;-60
2022/06/17 20:51:01;;;;;;;;;;;;;;;24.50;43.47;96407.13;10481290;28;1859;-59
2022/06/17 20:56:02;;;;;;;;;;;;;;;24.50;43.34;96409.78;10465757;28;1862;-61
2022/06/17 21:01:02;;;;;;;;;;;;;;;24.49;43.48;96401.03;10484922;28;1871;-58
2022/06/17 21:06:03;;;;;;;;;;;;;;;24.49;43.46;96395.72;10463936;28;1933;-58
2022/06/17 21:11:04;;;;;;;;;;;;;;;24.50;43.32;96404.47;10492357;28;2153;-60
2022/06/17 21:16:06;;;;;;;;;;;;;;;24.50;43.40;96407.13;10450286;28;1800;-58
2022/06/17 21:21:09;;;;;;;;;;;;;;;24.50;43.42;96399.19;10461058;28;1935;-58
2022/06/17 21:26:14;;;;;;;;;;;;;;;24.50;43.62;96402.63;10465016;28;1902;-55
2022/06/17 21:31:15;;;;;;;;;;;;;;;24.49;43.34;96398.38;10497283;28;1819;-59
2022/06/17 21:36:16;;;;;;;;;;;;;;;24.49;43.40;96400.22;10481034;28;1827;-60
2022/06/17 21:41:17;;;;;;;;;;;;;;;24.49;43.24;96400.22;10476102;28;1865;-59
2022/06/17 21:46:19;;;;;;;;;;;;;;;24.50;43.69;96388.56;10445919;28;1988;-60
2022/06/17 21:51:40;;;;;;;;;;;;;;;24.49;43.53;96384.31;10466185;28;1792;-59
2022/06/17 21:56:41;;;;;;;;;;;;;;;24.50;43.60;96386.72;10468946;28;1827;-58
2022/06/17 22:01:42;;;;;;;;;;;;;;;24.50;43.72;96391.22;10483599;28;1925;-57
2022/06/17 22:06:43;;;;;;;;;;;;;;;24.49;43.55;96389.63;10482711;28;2006;-59
2022/06/17 22:11:59;;;;;;;;;;;;;;;24.49;43.67;96392.28;10477992;28;1915;-60
2022/06/17 22:17:00;;;;;;;;;;;;;;;24.50;43.60;96393.88;10498787;28;2115;-57
2022/06/17 22:22:01;;;;;;;;;;;;;;;24.50;43.57;96397.31;10477333;28;1929;-61
2022/06/17 22:27:01;;;;;;;;;;;;;;;24.49;43.56;96401.03;10481831;28;1971;-61
2022/06/17 22:32:05;;;;;;;;;;;;;;;24.49;43.67;96389.63;10469012;28;1945;-60
2022/06/17 22:37:10;;;;;;;;;;;;;;;24.49;43.72;96390.44;10494486;28;1889;-60
2022/06/17 22:42:28;;;;;;;;;;;;;;;24.49;43.73;96385.13;10490168;28;1832;-59
2022/06/17 22:47:29;;;;;;;;;;;;;;;24.49;43.70;96373.72;10462100;28;1943;-59
2022/06/17 22:52:30;;;;;;;;;;;;;;;24.49;43.76;96373.72;10492245;28;1898;-60
2022/06/17 22:57:30;;;;;;;;;;;;;;;24.49;43.60;96371.06;10479776;28;1841;-60
2022/06/17 23:02:31;;;;;;;;;;;;;;;24.49;43.63;96376.38;10480112;28;1967;-60
2022/06/17 23:07:32;;;;;;;;;;;;;;;24.48;43.71;96394.16;10493719;28;1849;-60
2022/06/17 23:12:32;;;;;;;;;;;;;;;24.49;43.67;96385.13;10474887;28;1768;-60
2022/06/17 23:17:34;;;;;;;;;;;;;;;24.50;43.71;96391.22;10472609;28;1863;-59
2022/06/17 23:22:39;;;;;;;;;;;;;;;24.49;43.71;96384.31;10456077;28;1969;-58
2022/06/17 23:27:40;;;;;;;;;;;;;;;24.48;43.73;96382.75;10456665;28;1868;-59
2022/06/17 23:32:40;;;;;;;;;;;;;;;24.49;43.66;96379.03;10474833;28;1825;-59
2022/06/17 23:37:40;;;;;;;;;;;;;;;24.49;43.75;96368.44;10475889;28;1848;-59
2022/06/17 23:42:42;;;;;;;;;;;;;;;24.49;43.80;96371.06;10473492;28;1973;-58
2022/06/17 23:47:43;;;;;;;;;;;;;;;24.49;43.79;96373.72;10474043;28;1872;-59
2022/06/17 23:52:44;;;;;;;;;;;;;;;24.48;43.73;96370.31;10438518;28;1831;-61
2022/06/17 23:57:44;;;;;;;;;;;;;;;24.49;43.61;96369.22;10455246;28;1911;-60
